Latest Weather Observations for Flinders Island Airport

IDT60801

Issued at 9:35 am EST Thursday 18 September 2014 (issued every 30 minutes, with the page automatically refreshed every 10 minutes)

About weather observations | Map of weather stations | Latest weather observations for TAS | Other Formats
Station Details ID: 099005 Name: FLINDERS ISLAND AIRPORT Lat: -40.09 Lon: 148.00 Height: 9.0 m
Data from the previous 72 hours. | See also: Recent months at Flinders Island Airport
Date/Time
EST
Temp
°C
App
Temp
°C
Dew
Point
Rel
Hum
%
Delta-T
°C
Wind Press
QNH
hPa
Press
MSL
hPa
Rain
since 9 am
mm
Dir
 
Spd
km/h
Gust
km/h
Spd
kts
Gust
kts
18/09:30am 12.2 6.2 5.1 62 3.3 SW 26 33 14 18 1016.8 1016.9 0.0
18/09:00am 11.8 4.5 4.5 61 3.3 WSW 32 35 17 19 1016.4 1016.5 0.2
18/08:30am 11.6 4.7 4.8 63 3.1 WSW 30 39 16 21 1016.2 1016.3 0.2
18/08:00am 11.3 3.8 4.3 62 3.1 SW 33 43 18 23 1015.8 1015.9 0.2
18/07:30am 10.9 3.0 4.6 65 2.8 SW 35 44 19 24 1015.5 1015.6 0.2
18/07:00am 10.5 2.9 3.8 63 2.9 SW 33 43 18 23 1015.1 1015.2 0.2
18/06:30am 10.1 2.1 4.0 66 2.7 SW 35 48 19 26 1014.8 1014.9 0.2
18/06:00am 9.9 1.2 3.9 66 2.6 SW 39 48 21 26 1014.2 1014.3 0.2
18/05:30am 9.9 1.3 4.5 69 2.4 WSW 39 48 21 26 1013.6 1013.7 0.2
18/05:00am 9.7 1.1 4.5 70 2.3 WSW 39 50 21 27 1013.3 1013.3 0.2
18/04:30am 9.6 0.6 4.4 70 2.3 WSW 41 52 22 28 1012.8 1012.8 0.2
18/04:00am 9.5 1.6 4.1 69 2.4 SW 35 44 19 24 1012.5 1012.5 0.2
18/03:30am 9.4 1.1 4.0 69 2.4 SW 37 48 20 26 1012.3 1012.3 0.2
18/03:00am 9.2 0.5 4.0 70 2.3 WSW 39 50 21 27 1011.9 1011.9 0.2
18/02:30am 8.8 -0.3 3.8 71 2.2 WSW 41 54 22 29 1011.6 1011.6 0.2
18/02:00am 9.0 -1.1 3.8 70 2.3 WSW 46 57 25 31 1011.3 1011.3 0.2
18/01:30am 9.0 -1.1 3.6 69 2.3 WSW 46 59 25 32 1011.1 1011.1 0.2
18/01:00am 9.2 -0.9 4.0 70 2.3 WSW 46 59 25 32 1010.9 1010.9 0.2
18/12:30am 9.1 -1.4 3.9 70 2.3 WSW 48 59 26 32 1010.9 1010.9 0.2
18/12:00am 9.3 -1.2 3.9 69 2.4 WSW 48 63 26 34 1010.7 1010.7 0.2
 
Date/Time
EST
Temp
°C
App
Temp
°C
Dew
Point
Rel
Hum
%
Delta-T
°C
Wind Press
QNH
hPa
Press
MSL
hPa
Rain
since 9 am
mm
Dir
 
Spd
km/h
Gust
km/h
Spd
kts
Gust
kts
17/11:46pm 9.5 -2.0 4.3 70 2.3 WSW 54 72 29 39 1010.5 1010.5 0.2
17/11:30pm 9.3 -2.2 4.3 71 2.2 WSW 54 63 29 34 1010.3 1010.3 0.2
17/11:00pm 9.2 -2.4 3.8 69 2.4 WSW 54 67 29 36 1010.4 1010.4 0.2
17/10:30pm 9.5 -2.0 4.5 71 2.2 WSW 54 65 29 35 1010.5 1010.5 0.2
17/10:00pm 8.9 -3.2 4.3 73 2.0 WSW 57 76 31 41 1010.7 1010.7 0.2
17/09:54pm 9.4 -2.6 4.0 69 2.4 WSW 56 76 30 41 1010.4 1010.4 0.2
17/09:30pm 9.5 -1.3 3.9 68 2.5 WSW 50 63 27 34 1010.4 1010.4 0.2
17/09:00pm 9.6 -2.5 4.2 69 2.4 WSW 57 72 31 39 1010.2 1010.2 0.2
17/08:30pm 9.8 -3.7 3.1 63 2.9 WSW 63 82 34 44 1009.8 1009.8 0.2
17/08:14pm 9.8 -2.8 3.5 65 2.7 WSW 59 78 32 42 1009.9 1009.9 0.2
17/08:00pm 9.7 -3.3 3.7 66 2.6 WSW 61 74 33 40 1009.6 1009.6 0.2
17/07:30pm 10.1 -1.8 4.3 67 2.6 WSW 56 74 30 40 1009.1 1009.1 0.2
17/07:27pm 10.1 -1.5 4.0 66 2.7 WSW 54 74 29 40 1009.1 1009.1 0.2
17/07:00pm 10.1 -2.7 4.5 68 2.5 WSW 61 74 33 40 1008.4 1008.4 0.2
17/06:31pm 10.1 -2.0 4.0 66 2.7 WSW 57 76 31 41 1007.9 1007.9 0.2
17/06:30pm 10.1 -2.4 4.3 67 2.6 WSW 59 76 32 41 1008.0 1008.0 0.2
17/06:00pm 10.0 -2.4 4.6 69 2.4 WSW 59 72 32 39 1007.5 1007.5 0.2
17/05:30pm 10.2 -1.7 5.2 71 2.3 WSW 57 67 31 36 1006.9 1006.9 0.2
17/05:13pm 10.2 -0.8 5.0 70 2.3 WSW 52 70 28 38 1006.5 1006.5 0.2
17/05:00pm 9.9 -2.2 4.3 68 2.5 W 57 70 31 38 1006.2 1006.2 0.2
17/04:30pm 10.1 -2.4 4.0 66 2.7 W 59 74 32 40 1005.9 1005.9 0.2
17/04:00pm 10.3 -2.2 4.0 65 2.8 W 59 74 32 40 1005.6 1005.6 0.2
17/03:30pm 11.1 -0.6 5.4 68 2.6 W 56 70 30 38 1005.3 1005.3 0.2
17/03:05pm 10.5 -1.5 4.9 68 2.5 W 57 78 31 42 1005.2 1005.2 0.2
17/03:00pm 11.0 -0.4 4.9 66 2.8 W 54 63 29 34 1005.2 1005.2 0.2
17/02:30pm 11.4 -0.1 4.6 63 3.1 W 54 65 29 35 1005.2 1005.2 0.2
17/02:06pm 10.5 -0.1 5.3 70 2.4 W 50 69 27 37 1005.1 1005.1 0.2
17/02:00pm 10.8 1.2 6.4 74 2.1 WSW 46 59 25 32 1005.2 1005.2 0.2
17/01:53pm 9.9 -0.2 5.7 75 1.9 WSW 48 67 26 36 1005.2 1005.2 0.2
17/01:47pm 9.4 -2.0 5.0 74 2.0 WSW 54 67 29 36 1005.2 1005.2 0.2
17/01:43pm 10.2 -4.9 5.2 71 2.3 WSW 74 83 40 45 1005.0 1005.0 0.2
17/01:41pm 11.8 1.0 5.9 67 2.8 W 52 78 28 42 1005.0 1005.0 0.2
17/01:30pm 12.8 2.1 6.6 66 3.0 W 52 63 28 34 1005.2 1005.2 0.2
17/01:00pm 11.3 2.1 6.4 72 2.3 W 44 57 24 31 1005.3 1005.3 0.2
17/12:30pm 11.1 2.1 6.6 74 2.1 W 43 57 23 31 1005.7 1005.7 0.2
17/12:00pm 12.0 3.4 8.1 77 1.9 W 43 54 23 29 1005.8 1005.8 0.2
17/11:47am 11.4 1.5 8.3 81 1.5 WSW 50 59 27 32 1006.0 1006.0 0.2
17/11:32am 10.9 0.8 7.6 80 1.6 W 50 72 27 39 1006.1 1006.1 0.2
17/11:30am 10.6 0.4 6.9 78 1.7 W 50 72 27 39 1006.1 1006.1 0.0
17/11:26am 12.3 3.2 6.8 69 2.6 W 44 65 24 35 1005.9 1005.9 0.0
17/11:00am 13.2 5.5 7.2 67 2.9 W 37 50 20 27 1006.3 1006.3 0.0
17/10:30am 13.4 5.3 8.5 72 2.4 W 41 50 22 27 1006.4 1006.4 0.0
17/10:00am 12.3 5.9 8.6 78 1.8 W 32 44 17 24 1006.7 1006.7 0.0
17/09:30am 11.3 5.1 7.8 79 1.7 W 30 37 16 20 1006.9 1006.9 0.0
17/09:00am 13.0 6.5 8.3 73 2.3 W 32 41 17 22 1006.9 1006.9 10.6
17/08:30am 12.6 6.1 8.1 74 2.2 W 32 39 17 21 1007.2 1007.2 10.6
17/08:00am 11.9 4.9 8.4 79 1.7 W 35 43 19 23 1007.4 1007.4 10.6
17/07:30am 11.7 7.0 9.1 84 1.3 W 24 33 13 18 1007.3 1007.3 10.6
17/07:00am 11.5 5.8 8.5 82 1.5 W 28 35 15 19 1007.4 1007.4 10.4
17/06:48am 11.4 4.9 8.3 81 1.5 W 32 37 17 20 1007.4 1007.4 10.4
17/06:32am 11.6 5.2 8.6 82 1.5 W 32 39 17 21 1007.4 1007.4 10.4
17/06:30am 11.7 5.3 8.7 82 1.5 W 32 39 17 21 1007.4 1007.4 10.4
17/06:00am 11.1 4.6 8.1 82 1.5 W 32 37 17 20 1007.6 1007.6 10.4
17/05:30am 11.2 3.7 8.1 81 1.5 W 37 43 20 23 1007.6 1007.6 10.4
17/05:02am 11.4 4.0 8.4 82 1.5 W 37 41 20 22 1007.6 1007.6 10.4
17/05:00am 11.3 4.3 8.3 82 1.5 W 35 41 19 22 1007.6 1007.6 10.4
17/04:52am 11.3 4.3 8.3 82 1.5 W 35 43 19 23 1007.6 1007.6 10.4
17/04:30am 11.2 3.8 8.4 83 1.4 W 37 44 20 24 1007.7 1007.7 10.4
17/04:00am 11.1 4.5 8.5 84 1.3 WSW 33 41 18 22 1007.7 1007.7 10.4
17/03:35am 11.4 4.2 9.0 85 1.2 WSW 37 43 20 23 1007.9 1007.9 10.4
17/03:30am 11.3 4.0 8.9 85 1.2 WSW 37 43 20 23 1007.9 1007.9 10.4
17/03:00am 11.5 6.1 9.4 87 1.1 WSW 28 35 15 19 1008.1 1008.1 10.4
17/02:31am 11.3 6.6 9.2 87 1.0 SW 24 32 13 17 1008.2 1008.2 10.4
17/02:30am 11.3 6.6 9.2 87 1.0 SW 24 32 13 17 1008.2 1008.2 10.4
17/02:00am 11.1 4.9 9.2 88 1.0 SW 32 39 17 21 1008.3 1008.3 10.4
17/01:30am 11.1 5.4 9.7 91 0.7 SW 30 35 16 19 1008.6 1008.6 10.4
17/01:00am 10.9 4.6 9.8 93 0.6 SW 33 39 18 21 1008.5 1008.5 10.4
17/12:56am 10.9 4.6 9.8 93 0.6 SW 33 39 18 21 1008.5 1008.5 10.4
17/12:37am 10.4 4.0 9.3 93 0.5 SW 33 43 18 23 1008.5 1008.5 10.4
17/12:30am 10.5 3.8 9.6 94 0.5 SW 35 43 19 23 1008.4 1008.4 10.4
17/12:05am 10.2 2.7 9.3 94 0.4 SSW 39 50 21 27 1008.2 1008.2 9.2
17/12:00am 10.6 3.9 9.7 94 0.5 SSW 35 43 19 23 1008.2 1008.2 9.0
 
Date/Time
EST
Temp
°C
App
Temp
°C
Dew
Point
Rel
Hum
%
Delta-T
°C
Wind Press
QNH
hPa
Press
MSL
hPa
Rain
since 9 am
mm
Dir
 
Spd
km/h
Gust
km/h
Spd
kts
Gust
kts
16/11:30pm 10.8 4.7 9.9 94 0.5 SSW 32 37 17 20 1008.1 1008.1 9.0
16/11:00pm 11.3 6.9 10.4 94 0.5 S 24 37 13 20 1008.2 1008.2 9.0
16/10:30pm 11.0 6.1 10.1 94 0.5 S 26 35 14 19 1008.1 1008.1 9.0
16/10:23pm 10.9 6.4 10.0 94 0.5 S 24 30 13 16 1008.1 1008.1 9.0
16/10:00pm 10.8 5.9 9.9 94 0.5 S 26 32 14 17 1008.0 1008.0 9.0
16/09:32pm 10.0 9.1 9.1 94 0.4 SE 4 9 2 5 1008.0 1008.0 9.0
16/09:30pm 9.9 8.9 9.0 94 0.4 SE 4 9 2 5 1008.0 1008.0 9.0
16/09:19pm 10.1 8.8 9.2 94 0.4 SE 6 9 3 5 1008.0 1008.0 9.0
16/09:00pm 10.3 8.1 9.4 94 0.4 SE 11 17 6 9 1008.0 1008.0 9.0
16/08:30pm 11.0 6.9 10.1 94 0.5 S 22 33 12 18 1007.9 1007.9 9.0
16/08:00pm 10.9 8.0 9.8 93 0.6 SSE 15 24 8 13 1007.6 1007.6 9.0
16/07:41pm 11.1 7.4 10.0 93 0.6 S 20 30 11 16 1007.6 1007.6 8.2
16/07:30pm 11.0 5.7 9.9 93 0.6 S 28 39 15 21 1007.8 1007.8 7.6
16/07:14pm 12.2 8.9 10.9 92 0.7 SW 19 28 10 15 1008.1 1008.1 6.8
16/07:00pm 12.1 12.0 10.8 92 0.7 ENE 2 11 1 6 1008.0 1008.0 6.2
16/06:30pm 12.3 11.3 11.0 92 0.7 ENE 7 9 4 5 1007.8 1007.8 5.6
16/06:00pm 12.6 10.9 11.2 91 0.7 E 11 15 6 8 1007.8 1007.8 4.2
16/05:30pm 12.7 11.4 11.3 91 0.7 E 9 11 5 6 1007.7 1007.7 4.2
16/05:00pm 12.8 11.1 11.2 90 0.8 E 11 17 6 9 1007.5 1007.5 4.2
16/04:30pm 13.0 11.4 11.6 91 0.7 E 11 15 6 8 1007.4 1007.4 4.2
16/04:00pm 13.1 10.7 11.5 90 0.9 E 15 19 8 10 1007.2 1007.2 4.2
16/03:30pm 13.6 11.0 12.0 90 0.9 E 17 24 9 13 1007.4 1007.4 4.0
16/03:00pm 13.7 11.1 12.1 90 0.9 E 17 20 9 11 1007.4 1007.4 4.0
16/02:30pm 14.0 11.5 12.4 90 0.9 ENE 17 24 9 13 1007.6 1007.6 4.0
16/02:00pm 13.8 11.3 12.4 91 0.8 ENE 17 26 9 14 1007.8 1007.8 4.0
16/01:30pm 13.9 11.1 12.6 92 0.7 ENE 19 26 10 14 1008.0 1008.0 4.0
16/01:00pm 13.4 12.0 12.1 92 0.7 E 11 19 6 10 1008.4 1008.4 4.0
16/12:54pm 13.2 11.3 11.9 92 0.7 E 13 19 7 10 1008.5 1008.5 4.0
16/12:30pm 12.7 10.7 11.4 92 0.7 E 13 19 7 10 1008.9 1008.9 3.6
16/12:00pm 12.7 10.3 11.4 92 0.7 E 15 20 8 11 1009.5 1009.5 3.0
16/11:30am 12.4 9.5 11.1 92 0.7 ENE 17 20 9 11 1009.9 1009.9 2.2
16/11:00am 12.2 9.2 10.8 91 0.7 ENE 17 26 9 14 1010.4 1010.4 1.2
16/10:30am 12.3 9.3 10.7 90 0.8 E 17 22 9 12 1010.5 1010.5 0.2
16/10:00am 12.4 9.4 10.6 89 0.9 E 17 26 9 14 1010.7 1010.7 0.0
16/09:45am 12.2 8.6 10.4 89 0.9 E 20 30 11 16 1010.8 1010.8 0.0
16/09:30am 12.2 8.5 10.3 88 1.0 E 20 30 11 16 1010.9 1010.9 0.0
16/09:00am 12.0 8.5 10.1 88 1.0 E 19 28 10 15 1011.3 1011.3 2.0
16/08:54am 11.9 8.7 10.0 88 1.0 ENE 17 22 9 12 1011.3 1011.3 2.0
16/08:30am 11.9 8.2 10.0 88 1.0 ENE 20 30 11 16 1011.4 1011.4 2.0
16/08:20am 11.8 8.2 9.7 87 1.1 ENE 19 30 10 16 1011.5 1011.5 2.0
16/08:00am 11.7 9.6 9.6 87 1.1 E 11 19 6 10 1011.6 1011.6 1.8
16/07:30am 11.5 9.3 9.4 87 1.1 E 11 15 6 8 1011.8 1011.8 1.8
16/07:00am 11.2 7.8 9.1 87 1.0 E 17 22 9 12 1011.5 1011.5 1.8
16/06:30am 10.9 7.8 9.0 88 0.9 E 15 19 8 10 1011.7 1011.7 1.8
16/06:00am 10.7 7.6 8.8 88 0.9 E 15 22 8 12 1011.7 1011.7 1.8
16/05:30am 10.4 6.5 8.5 88 0.9 E 19 28 10 15 1011.6 1011.6 1.8
16/05:24am 10.4 6.4 8.3 87 1.0 E 19 26 10 14 1011.6 1011.6 1.8
16/05:00am 10.3 7.0 8.1 86 1.1 E 15 20 8 11 1011.8 1011.8 1.8
16/04:30am 10.4 7.4 7.5 82 1.4 ENE 13 19 7 10 1012.1 1012.1 1.0
16/04:00am 10.8 7.6 6.9 77 1.8 E 13 19 7 10 1012.1 1012.1 0.2
16/03:30am 11.2 7.6 6.7 74 2.1 E 15 28 8 15 1012.2 1012.2 0.0
16/03:16am 11.2 6.8 6.5 73 2.2 ENE 19 26 10 14 1012.1 1012.1 0.0
16/03:00am 11.5 7.4 6.2 70 2.5 E 17 28 9 15 1012.2 1012.2 0.0
16/02:30am 11.3 7.2 6.2 71 2.4 E 17 20 9 11 1012.3 1012.3 0.0
16/02:00am 11.1 7.0 6.3 72 2.2 E 17 20 9 11 1012.5 1012.5 0.0
16/01:30am 11.2 7.2 6.5 73 2.2 ENE 17 28 9 15 1013.0 1013.0 0.0
16/01:00am 11.1 6.7 6.6 74 2.1 ENE 19 24 10 13 1013.4 1013.5 0.0
16/12:30am 11.0 6.6 6.6 74 2.1 ENE 19 26 10 14 1013.9 1014.0 0.0
16/12:00am 10.9 7.2 6.5 74 2.1 ENE 15 22 8 12 1014.3 1014.4 0.0
 
Date/Time
EST
Temp
°C
App
Temp
°C
Dew
Point
Rel
Hum
%
Delta-T
°C
Wind Press
QNH
hPa
Press
MSL
hPa
Rain
since 9 am
mm
Dir
 
Spd
km/h
Gust
km/h
Spd
kts
Gust
kts
15/11:30pm 11.1 6.7 6.6 74 2.1 ENE 19 26 10 14 1014.7 1014.8 0.0
15/11:00pm 11.1 7.5 6.6 74 2.1 ENE 15 19 8 10 1015.2 1015.3 0.0
15/10:30pm 11.1 7.1 6.6 74 2.1 NE 17 19 9 10 1015.7 1015.8 0.0
15/10:00pm 10.9 7.3 6.6 75 2.0 NE 15 17 8 9 1015.9 1016.0 0.0
15/09:30pm 10.7 7.8 6.6 76 1.9 ENE 11 13 6 7 1016.3 1016.4 0.0
15/09:00pm 10.3 7.7 6.3 76 1.9 E 9 11 5 6 1016.4 1016.5 0.0
15/08:30pm 10.5 7.2 6.5 76 1.9 ENE 13 15 7 8 1016.4 1016.5 0.0
15/08:00pm 10.7 7.8 6.5 75 2.0 E 11 17 6 9 1016.5 1016.6 0.0
15/07:30pm 10.6 7.3 6.2 74 2.0 E 13 17 7 9 1016.5 1016.6 0.0
15/07:00pm 10.6 7.6 6.2 74 2.0 ENE 11 15 6 8 1016.2 1016.3 0.0
15/06:30pm 10.6 7.6 6.0 73 2.1 E 11 15 6 8 1015.9 1016.0 0.0
15/06:00pm 10.7 7.7 5.9 72 2.2 E 11 15 6 8 1015.9 1016.0 0.0
15/05:30pm 11.2 7.8 5.9 70 2.5 E 13 19 7 10 1015.7 1015.8 0.0
15/05:00pm 11.6 7.4 5.9 68 2.7 E 17 24 9 13 1015.7 1015.8 0.0
15/04:30pm 12.0 7.9 6.1 67 2.8 E 17 24 9 13 1015.4 1015.5 0.0
15/04:00pm 12.3 7.6 5.9 65 3.0 E 20 30 11 16 1015.5 1015.6 0.0
15/03:30pm 12.5 8.0 6.1 65 3.0 E 19 26 10 14 1015.6 1015.7 0.0
15/03:00pm 13.1 8.6 6.0 62 3.4 E 19 28 10 15 1015.6 1015.7 0.0
15/02:30pm 13.6 8.9 6.2 61 3.5 ENE 20 28 11 15 1015.8 1015.9 0.0
15/02:00pm 14.1 9.5 6.5 60 3.7 E 20 30 11 16 1016.0 1016.1 0.0
15/01:30pm 13.7 8.9 5.8 59 3.7 E 20 30 11 16 1016.2 1016.3 0.0
15/01:00pm 14.7 10.2 7.0 60 3.8 ENE 20 30 11 16 1016.4 1016.5 0.0
15/12:30pm 14.4 9.8 6.5 59 3.8 E 20 28 11 15 1016.7 1016.8 0.0
15/12:00pm 14.2 9.1 6.1 58 3.9 E 22 32 12 17 1016.9 1017.0 0.0
15/11:30am 14.2 8.7 6.1 58 3.9 E 24 32 13 17 1017.2 1017.3 0.0
15/11:00am 13.2 7.6 5.4 59 3.6 ENE 24 33 13 18 1017.5 1017.6 0.0
15/10:30am 13.9 8.9 6.3 60 3.6 E 22 32 12 17 1018.0 1018.0 0.0
15/10:00am 13.4 8.8 5.6 59 3.7 E 19 28 10 15 1018.0 1018.0 0.0

Other Formats:

Comma delimited format used in spreadsheet applications
http://www.bom.gov.au/fwo/IDT60801/IDT60801.94980.axf

JavaScript Object Notation format (JSON) in row-major order
http://www.bom.gov.au/fwo/IDT60801/IDT60801.94980.json